sensor_id;sensor_type;location;lat;lon;timestamp;temperature;humidity
12309;DHT22;6217;48.150;17.142;2023-02-26T00:00:20;5.00;80.40
12309;DHT22;6217;48.150;17.142;2023-02-26T00:04:26;5.00;80.30
12309;DHT22;6217;48.150;17.142;2023-02-26T00:08:32;5.00;80.30
12309;DHT22;6217;48.150;17.142;2023-02-26T00:12:38;5.00;80.20
12309;DHT22;6217;48.150;17.142;2023-02-26T00:16:52;4.90;80.00
12309;DHT22;6217;48.150;17.142;2023-02-26T00:21:03;4.90;80.40
12309;DHT22;6217;48.150;17.142;2023-02-26T00:25:09;4.90;80.40
12309;DHT22;6217;48.150;17.142;2023-02-26T00:29:15;4.90;80.30
12309;DHT22;6217;48.150;17.142;2023-02-26T00:33:21;4.80;80.10
12309;DHT22;6217;48.150;17.142;2023-02-26T00:37:35;4.80;80.30
12309;DHT22;6217;48.150;17.142;2023-02-26T00:41:48;4.90;80.10
12309;DHT22;6217;48.150;17.142;2023-02-26T00:50:26;4.80;79.90
12309;DHT22;6217;48.150;17.142;2023-02-26T00:54:32;4.80;79.90
12309;DHT22;6217;48.150;17.142;2023-02-26T00:58:39;4.70;80.00
12309;DHT22;6217;48.150;17.142;2023-02-26T01:02:47;4.70;79.80
12309;DHT22;6217;48.150;17.142;2023-02-26T01:06:55;4.60;79.90
12309;DHT22;6217;48.150;17.142;2023-02-26T01:11:02;4.60;79.80
12309;DHT22;6217;48.150;17.142;2023-02-26T01:15:09;4.50;79.70
12309;DHT22;6217;48.150;17.142;2023-02-26T01:23:41;4.40;79.50
12309;DHT22;6217;48.150;17.142;2023-02-26T01:27:52;4.40;79.40
12309;DHT22;6217;48.150;17.142;2023-02-26T01:36:42;4.30;79.50
12309;DHT22;6217;48.150;17.142;2023-02-26T01:45:58;4.30;79.70
12309;DHT22;6217;48.150;17.142;2023-02-26T01:50:16;4.30;79.50
12309;DHT22;6217;48.150;17.142;2023-02-26T01:54:37;4.40;79.30
12309;DHT22;6217;48.150;17.142;2023-02-26T01:58:43;4.40;79.00
12309;DHT22;6217;48.150;17.142;2023-02-26T02:02:52;4.40;78.90
12309;DHT22;6217;48.150;17.142;2023-02-26T02:06:59;4.40;78.90
12309;DHT22;6217;48.150;17.142;2023-02-26T02:11:08;4.30;79.80
12309;DHT22;6217;48.150;17.142;2023-02-26T02:15:26;4.30;79.30
12309;DHT22;6217;48.150;17.142;2023-02-26T02:19:56;4.30;79.10
12309;DHT22;6217;48.150;17.142;2023-02-26T02:32:48;4.30;78.60
12309;DHT22;6217;48.150;17.142;2023-02-26T02:41:30;4.30;78.60
12309;DHT22;6217;48.150;17.142;2023-02-26T02:45:55;4.30;78.20
12309;DHT22;6217;48.150;17.142;2023-02-26T02:50:13;4.40;78.30
12309;DHT22;6217;48.150;17.142;2023-02-26T02:54:30;4.40;78.10
12309;DHT22;6217;48.150;17.142;2023-02-26T02:58:49;4.40;78.20
12309;DHT22;6217;48.150;17.142;2023-02-26T03:07:52;4.20;78.60
12309;DHT22;6217;48.150;17.142;2023-02-26T03:12:01;4.20;78.90
12309;DHT22;6217;48.150;17.142;2023-02-26T03:16:14;4.20;78.70
12309;DHT22;6217;48.150;17.142;2023-02-26T03:20:28;4.10;78.70
12309;DHT22;6217;48.150;17.142;2023-02-26T03:24:55;4.20;78.90
12309;DHT22;6217;48.150;17.142;2023-02-26T03:34:08;4.20;78.40
12309;DHT22;6217;48.150;17.142;2023-02-26T03:38:47;4.10;78.50
12309;DHT22;6217;48.150;17.142;2023-02-26T03:43:21;4.10;78.70
12309;DHT22;6217;48.150;17.142;2023-02-26T03:47:31;4.10;78.60
12309;DHT22;6217;48.150;17.142;2023-02-26T03:51:40;4.20;78.40
12309;DHT22;6217;48.150;17.142;2023-02-26T03:56:33;4.10;78.40
12309;DHT22;6217;48.150;17.142;2023-02-26T04:01:05;4.20;78.60
12309;DHT22;6217;48.150;17.142;2023-02-26T04:05:28;4.40;78.20
12309;DHT22;6217;48.150;17.142;2023-02-26T04:09:56;4.40;78.30
12309;DHT22;6217;48.150;17.142;2023-02-26T04:14:07;4.60;78.00
12309;DHT22;6217;48.150;17.142;2023-02-26T04:18:18;4.60;77.50
12309;DHT22;6217;48.150;17.142;2023-02-26T04:22:24;4.60;77.80
12309;DHT22;6217;48.150;17.142;2023-02-26T04:26:30;4.60;77.80
12309;DHT22;6217;48.150;17.142;2023-02-26T04:30:36;4.70;77.80
12309;DHT22;6217;48.150;17.142;2023-02-26T04:34:44;4.80;77.70
12309;DHT22;6217;48.150;17.142;2023-02-26T04:38:50;4.80;77.60
12309;DHT22;6217;48.150;17.142;2023-02-26T04:42:56;4.80;77.40
12309;DHT22;6217;48.150;17.142;2023-02-26T04:47:05;4.70;77.40
12309;DHT22;6217;48.150;17.142;2023-02-26T04:51:13;4.70;77.40
12309;DHT22;6217;48.150;17.142;2023-02-26T04:55:19;4.60;77.60
12309;DHT22;6217;48.150;17.142;2023-02-26T04:59:25;4.50;77.90
12309;DHT22;6217;48.150;17.142;2023-02-26T05:03:31;4.40;77.90
12309;DHT22;6217;48.150;17.142;2023-02-26T05:07:37;4.40;78.10
12309;DHT22;6217;48.150;17.142;2023-02-26T05:11:43;4.30;78.20
12309;DHT22;6217;48.150;17.142;2023-02-26T05:15:52;4.20;78.60
12309;DHT22;6217;48.150;17.142;2023-02-26T05:19:59;4.20;78.70
12309;DHT22;6217;48.150;17.142;2023-02-26T05:24:06;4.20;78.70
12309;DHT22;6217;48.150;17.142;2023-02-26T05:28:12;4.10;78.60
12309;DHT22;6217;48.150;17.142;2023-02-26T05:32:18;4.10;78.60
12309;DHT22;6217;48.150;17.142;2023-02-26T05:36:24;4.00;79.00
12309;DHT22;6217;48.150;17.142;2023-02-26T05:40:30;3.90;79.10
12309;DHT22;6217;48.150;17.142;2023-02-26T05:44:36;3.90;79.40
12309;DHT22;6217;48.150;17.142;2023-02-26T05:48:42;4.00;79.50
12309;DHT22;6217;48.150;17.142;2023-02-26T05:52:48;4.10;79.20
12309;DHT22;6217;48.150;17.142;2023-02-26T05:56:54;4.10;79.30
12309;DHT22;6217;48.150;17.142;2023-02-26T06:01:00;4.20;79.10
12309;DHT22;6217;48.150;17.142;2023-02-26T06:05:07;4.20;79.30
12309;DHT22;6217;48.150;17.142;2023-02-26T06:09:13;4.40;79.10
12309;DHT22;6217;48.150;17.142;2023-02-26T06:13:19;4.60;79.10
12309;DHT22;6217;48.150;17.142;2023-02-26T06:17:25;4.70;78.60
12309;DHT22;6217;48.150;17.142;2023-02-26T06:21:32;4.70;78.50
12309;DHT22;6217;48.150;17.142;2023-02-26T06:25:38;4.60;78.60
12309;DHT22;6217;48.150;17.142;2023-02-26T06:29:43;4.60;79.00
12309;DHT22;6217;48.150;17.142;2023-02-26T06:33:49;4.60;79.30
12309;DHT22;6217;48.150;17.142;2023-02-26T06:37:56;4.60;79.50
12309;DHT22;6217;48.150;17.142;2023-02-26T06:42:02;4.50;79.50
12309;DHT22;6217;48.150;17.142;2023-02-26T06:46:09;4.50;79.90
12309;DHT22;6217;48.150;17.142;2023-02-26T06:50:15;4.70;79.90
12309;DHT22;6217;48.150;17.142;2023-02-26T06:54:22;4.80;79.40
12309;DHT22;6217;48.150;17.142;2023-02-26T06:58:28;4.80;79.30
12309;DHT22;6217;48.150;17.142;2023-02-26T07:02:34;4.90;79.60
12309;DHT22;6217;48.150;17.142;2023-02-26T07:06:40;5.10;79.10
12309;DHT22;6217;48.150;17.142;2023-02-26T07:10:46;5.10;78.90
12309;DHT22;6217;48.150;17.142;2023-02-26T07:14:53;5.20;78.50
12309;DHT22;6217;48.150;17.142;2023-02-26T07:18:59;5.20;78.40
12309;DHT22;6217;48.150;17.142;2023-02-26T07:23:05;5.30;78.20
12309;DHT22;6217;48.150;17.142;2023-02-26T07:27:11;5.60;77.90
12309;DHT22;6217;48.150;17.142;2023-02-26T07:31:17;6.10;76.80
12309;DHT22;6217;48.150;17.142;2023-02-26T07:35:24;6.60;75.40
12309;DHT22;6217;48.150;17.142;2023-02-26T07:39:29;6.60;74.50
12309;DHT22;6217;48.150;17.142;2023-02-26T07:43:35;6.40;74.20
12309;DHT22;6217;48.150;17.142;2023-02-26T07:47:41;6.40;74.60
12309;DHT22;6217;48.150;17.142;2023-02-26T07:51:47;6.80;74.60
12309;DHT22;6217;48.150;17.142;2023-02-26T07:55:54;7.30;73.00
12309;DHT22;6217;48.150;17.142;2023-02-26T08:00:00;8.50;71.10
12309;DHT22;6217;48.150;17.142;2023-02-26T08:04:05;8.80;68.40
12309;DHT22;6217;48.150;17.142;2023-02-26T08:08:11;8.60;69.00
12309;DHT22;6217;48.150;17.142;2023-02-26T08:12:17;9.20;67.20
12309;DHT22;6217;48.150;17.142;2023-02-26T08:16:23;8.60;67.50
12309;DHT22;6217;48.150;17.142;2023-02-26T08:20:29;9.70;67.70
12309;DHT22;6217;48.150;17.142;2023-02-26T08:24:35;10.50;63.80
12309;DHT22;6217;48.150;17.142;2023-02-26T08:28:42;9.90;63.10
12309;DHT22;6217;48.150;17.142;2023-02-26T08:32:48;9.10;65.40
12309;DHT22;6217;48.150;17.142;2023-02-26T08:36:54;8.90;67.10
12309;DHT22;6217;48.150;17.142;2023-02-26T08:41:00;9.40;66.80
12309;DHT22;6217;48.150;17.142;2023-02-26T08:45:06;9.80;65.80
12309;DHT22;6217;48.150;17.142;2023-02-26T08:49:13;9.40;64.00
12309;DHT22;6217;48.150;17.142;2023-02-26T08:53:18;8.60;63.60
12309;DHT22;6217;48.150;17.142;2023-02-26T08:57:24;7.90;63.90
12309;DHT22;6217;48.150;17.142;2023-02-26T09:01:30;7.60;65.00
12309;DHT22;6217;48.150;17.142;2023-02-26T09:05:37;7.60;65.90
12309;DHT22;6217;48.150;17.142;2023-02-26T09:09:43;7.70;65.30
12309;DHT22;6217;48.150;17.142;2023-02-26T09:13:49;7.50;65.20
12309;DHT22;6217;48.150;17.142;2023-02-26T09:17:55;7.30;65.20
12309;DHT22;6217;48.150;17.142;2023-02-26T09:22:01;7.30;65.20
12309;DHT22;6217;48.150;17.142;2023-02-26T09:26:07;7.50;65.80
12309;DHT22;6217;48.150;17.142;2023-02-26T09:30:14;7.70;65.80
12309;DHT22;6217;48.150;17.142;2023-02-26T09:34:21;7.70;64.50
12309;DHT22;6217;48.150;17.142;2023-02-26T09:38:27;7.60;65.00
12309;DHT22;6217;48.150;17.142;2023-02-26T09:42:56;7.80;65.00
12309;DHT22;6217;48.150;17.142;2023-02-26T09:51:51;7.50;63.00
12309;DHT22;6217;48.150;17.142;2023-02-26T09:56:16;7.50;63.70
12309;DHT22;6217;48.150;17.142;2023-02-26T10:00:42;7.40;63.40
12309;DHT22;6217;48.150;17.142;2023-02-26T10:14:17;7.40;62.70
12309;DHT22;6217;48.150;17.142;2023-02-26T10:18:31;7.30;62.90
12309;DHT22;6217;48.150;17.142;2023-02-26T10:22:54;7.30;62.20
12309;DHT22;6217;48.150;17.142;2023-02-26T10:27:12;7.60;61.50
12309;DHT22;6217;48.150;17.142;2023-02-26T10:31:30;7.50;60.70
12309;DHT22;6217;48.150;17.142;2023-02-26T10:35:52;7.30;60.10
12309;DHT22;6217;48.150;17.142;2023-02-26T10:44:38;7.10;59.20
12309;DHT22;6217;48.150;17.142;2023-02-26T10:53:51;7.00;58.30
12309;DHT22;6217;48.150;17.142;2023-02-26T10:58:04;7.10;58.00
12309;DHT22;6217;48.150;17.142;2023-02-26T11:02:39;7.10;56.80
12309;DHT22;6217;48.150;17.142;2023-02-26T11:07:06;7.10;56.30
12309;DHT22;6217;48.150;17.142;2023-02-26T11:11:35;7.20;56.00
12309;DHT22;6217;48.150;17.142;2023-02-26T11:15:42;7.40;55.70
12309;DHT22;6217;48.150;17.142;2023-02-26T11:20:01;7.50;55.30
12309;DHT22;6217;48.150;17.142;2023-02-26T11:24:34;7.70;54.80
12309;DHT22;6217;48.150;17.142;2023-02-26T11:28:46;7.70;54.70
12309;DHT22;6217;48.150;17.142;2023-02-26T11:32:56;8.00;54.40
12309;DHT22;6217;48.150;17.142;2023-02-26T11:37:03;8.10;53.70
12309;DHT22;6217;48.150;17.142;2023-02-26T11:41:10;8.10;53.20
12309;DHT22;6217;48.150;17.142;2023-02-26T11:45:19;8.10;52.60
12309;DHT22;6217;48.150;17.142;2023-02-26T11:49:27;8.00;51.90
12309;DHT22;6217;48.150;17.142;2023-02-26T11:53:36;7.80;51.50
12309;DHT22;6217;48.150;17.142;2023-02-26T11:57:50;7.70;51.10
12309;DHT22;6217;48.150;17.142;2023-02-26T12:02:11;7.60;51.00
12309;DHT22;6217;48.150;17.142;2023-02-26T12:06:21;7.80;51.50
12309;DHT22;6217;48.150;17.142;2023-02-26T12:10:39;7.80;51.50
12309;DHT22;6217;48.150;17.142;2023-02-26T12:32:44;7.40;51.10
12309;DHT22;6217;48.150;17.142;2023-02-26T12:37:17;7.50;52.10
12309;DHT22;6217;48.150;17.142;2023-02-26T12:51:11;7.50;52.90
12309;DHT22;6217;48.150;17.142;2023-02-26T13:05:05;8.20;53.00
12309;DHT22;6217;48.150;17.142;2023-02-26T13:09:40;8.40;53.00
12309;DHT22;6217;48.150;17.142;2023-02-26T13:14:04;8.30;52.90
12309;DHT22;6217;48.150;17.142;2023-02-26T13:18:40;8.00;52.50
12309;DHT22;6217;48.150;17.142;2023-02-26T13:23:15;8.10;53.30
12309;DHT22;6217;48.150;17.142;2023-02-26T13:27:28;8.10;52.80
12309;DHT22;6217;48.150;17.142;2023-02-26T13:31:54;7.90;53.00
12309;DHT22;6217;48.150;17.142;2023-02-26T13:36:04;7.70;53.10
12309;DHT22;6217;48.150;17.142;2023-02-26T13:45:44;7.50;53.80
12309;DHT22;6217;48.150;17.142;2023-02-26T13:54:56;7.40;54.90
12309;DHT22;6217;48.150;17.142;2023-02-26T13:59:24;7.40;55.20
12309;DHT22;6217;48.150;17.142;2023-02-26T14:03:51;7.50;55.30
12309;DHT22;6217;48.150;17.142;2023-02-26T14:12:43;7.50;55.60
12309;DHT22;6217;48.150;17.142;2023-02-26T14:21:37;7.30;55.60
12309;DHT22;6217;48.150;17.142;2023-02-26T14:26:03;7.20;55.80
12309;DHT22;6217;48.150;17.142;2023-02-26T14:34:24;7.00;55.80
12309;DHT22;6217;48.150;17.142;2023-02-26T14:38:37;7.00;56.20
12309;DHT22;6217;48.150;17.142;2023-02-26T14:43:00;7.00;56.30
12309;DHT22;6217;48.150;17.142;2023-02-26T14:47:08;6.80;56.00
12309;DHT22;6217;48.150;17.142;2023-02-26T14:51:53;6.60;56.00
12309;DHT22;6217;48.150;17.142;2023-02-26T15:14:08;6.20;54.40
12309;DHT22;6217;48.150;17.142;2023-02-26T15:18:43;6.20;54.30
12309;DHT22;6217;48.150;17.142;2023-02-26T15:23:05;6.20;54.50
12309;DHT22;6217;48.150;17.142;2023-02-26T15:27:16;6.30;54.30
12309;DHT22;6217;48.150;17.142;2023-02-26T15:31:31;6.30;54.80
12309;DHT22;6217;48.150;17.142;2023-02-26T15:35:39;6.10;53.90
12309;DHT22;6217;48.150;17.142;2023-02-26T15:39:52;6.10;53.60
12309;DHT22;6217;48.150;17.142;2023-02-26T15:44:13;6.10;53.80
12309;DHT22;6217;48.150;17.142;2023-02-26T15:48:36;6.00;53.10
12309;DHT22;6217;48.150;17.142;2023-02-26T15:52:51;5.90;53.10
12309;DHT22;6217;48.150;17.142;2023-02-26T15:57:01;5.80;52.70
12309;DHT22;6217;48.150;17.142;2023-02-26T16:01:14;5.70;52.80
12309;DHT22;6217;48.150;17.142;2023-02-26T16:05:24;5.60;52.40
12309;DHT22;6217;48.150;17.142;2023-02-26T16:09:35;5.60;52.60
12309;DHT22;6217;48.150;17.142;2023-02-26T16:13:48;5.70;52.70
12309;DHT22;6217;48.150;17.142;2023-02-26T16:17:56;5.60;52.50
12309;DHT22;6217;48.150;17.142;2023-02-26T16:26:34;5.40;52.70
12309;DHT22;6217;48.150;17.142;2023-02-26T16:30:43;5.40;53.10
12309;DHT22;6217;48.150;17.142;2023-02-26T16:34:55;5.30;53.40
12309;DHT22;6217;48.150;17.142;2023-02-26T16:43:33;5.20;54.20
12309;DHT22;6217;48.150;17.142;2023-02-26T16:47:49;5.20;54.40
12309;DHT22;6217;48.150;17.142;2023-02-26T16:51:56;5.20;54.70
12309;DHT22;6217;48.150;17.142;2023-02-26T16:56:04;5.20;54.90
12309;DHT22;6217;48.150;17.142;2023-02-26T17:00:22;5.20;54.90
12309;DHT22;6217;48.150;17.142;2023-02-26T17:04:36;5.10;55.10
12309;DHT22;6217;48.150;17.142;2023-02-26T17:08:53;5.10;55.10
12309;DHT22;6217;48.150;17.142;2023-02-26T17:13:11;5.00;55.20
12309;DHT22;6217;48.150;17.142;2023-02-26T17:17:19;5.00;55.30
12309;DHT22;6217;48.150;17.142;2023-02-26T17:21:25;5.00;55.40
12309;DHT22;6217;48.150;17.142;2023-02-26T17:25:39;5.10;55.50
12309;DHT22;6217;48.150;17.142;2023-02-26T17:29:49;5.00;55.60
12309;DHT22;6217;48.150;17.142;2023-02-26T17:33:55;5.10;55.60
12309;DHT22;6217;48.150;17.142;2023-02-26T17:38:01;5.00;55.70
12309;DHT22;6217;48.150;17.142;2023-02-26T17:42:18;5.00;55.90
12309;DHT22;6217;48.150;17.142;2023-02-26T17:46:26;5.10;55.80
12309;DHT22;6217;48.150;17.142;2023-02-26T17:51:07;5.00;55.60
12309;DHT22;6217;48.150;17.142;2023-02-26T17:55:13;5.00;55.70
12309;DHT22;6217;48.150;17.142;2023-02-26T17:59:19;4.90;55.80
12309;DHT22;6217;48.150;17.142;2023-02-26T18:03:25;4.80;55.90
12309;DHT22;6217;48.150;17.142;2023-02-26T18:07:31;4.80;56.30
12309;DHT22;6217;48.150;17.142;2023-02-26T18:11:38;4.70;56.40
12309;DHT22;6217;48.150;17.142;2023-02-26T18:15:47;4.60;56.70
12309;DHT22;6217;48.150;17.142;2023-02-26T18:19:54;4.60;56.80
12309;DHT22;6217;48.150;17.142;2023-02-26T18:24:00;4.50;57.00
12309;DHT22;6217;48.150;17.142;2023-02-26T18:28:08;4.40;57.20
12309;DHT22;6217;48.150;17.142;2023-02-26T18:32:20;4.40;57.60
12309;DHT22;6217;48.150;17.142;2023-02-26T18:36:30;4.30;57.70
12309;DHT22;6217;48.150;17.142;2023-02-26T18:40:43;4.30;57.90
12309;DHT22;6217;48.150;17.142;2023-02-26T18:44:50;4.20;58.00
12309;DHT22;6217;48.150;17.142;2023-02-26T18:48:57;4.10;58.60
12309;DHT22;6217;48.150;17.142;2023-02-26T18:53:03;4.10;58.90
12309;DHT22;6217;48.150;17.142;2023-02-26T18:57:09;4.00;59.10
12309;DHT22;6217;48.150;17.142;2023-02-26T19:01:16;4.00;59.20
12309;DHT22;6217;48.150;17.142;2023-02-26T19:05:22;4.00;59.30
12309;DHT22;6217;48.150;17.142;2023-02-26T19:09:29;4.00;59.60
12309;DHT22;6217;48.150;17.142;2023-02-26T19:13:35;3.90;59.80
12309;DHT22;6217;48.150;17.142;2023-02-26T19:17:42;4.00;59.90
12309;DHT22;6217;48.150;17.142;2023-02-26T19:21:48;3.90;60.00
12309;DHT22;6217;48.150;17.142;2023-02-26T19:25:54;3.90;60.10
12309;DHT22;6217;48.150;17.142;2023-02-26T19:30:00;3.90;60.50
12309;DHT22;6217;48.150;17.142;2023-02-26T19:34:08;3.90;60.50
12309;DHT22;6217;48.150;17.142;2023-02-26T19:38:14;3.90;60.60
12309;DHT22;6217;48.150;17.142;2023-02-26T19:42:20;3.90;60.70
12309;DHT22;6217;48.150;17.142;2023-02-26T19:46:26;3.90;60.90
12309;DHT22;6217;48.150;17.142;2023-02-26T19:50:32;3.90;61.10
12309;DHT22;6217;48.150;17.142;2023-02-26T19:54:38;3.90;61.10
12309;DHT22;6217;48.150;17.142;2023-02-26T19:58:44;3.80;61.20
12309;DHT22;6217;48.150;17.142;2023-02-26T20:02:50;3.80;61.40
12309;DHT22;6217;48.150;17.142;2023-02-26T20:06:56;3.80;61.50
12309;DHT22;6217;48.150;17.142;2023-02-26T20:11:02;3.80;61.40
12309;DHT22;6217;48.150;17.142;2023-02-26T20:15:08;3.80;61.60
12309;DHT22;6217;48.150;17.142;2023-02-26T20:19:14;3.70;61.60
12309;DHT22;6217;48.150;17.142;2023-02-26T20:23:20;3.70;61.60
12309;DHT22;6217;48.150;17.142;2023-02-26T20:27:26;3.70;61.70
12309;DHT22;6217;48.150;17.142;2023-02-26T20:31:32;3.70;61.60
12309;DHT22;6217;48.150;17.142;2023-02-26T20:35:40;3.70;61.70
12309;DHT22;6217;48.150;17.142;2023-02-26T20:39:50;3.60;62.00
12309;DHT22;6217;48.150;17.142;2023-02-26T20:43:56;3.50;62.50
12309;DHT22;6217;48.150;17.142;2023-02-26T20:48:03;3.50;62.50
12309;DHT22;6217;48.150;17.142;2023-02-26T20:52:09;3.40;62.70
12309;DHT22;6217;48.150;17.142;2023-02-26T20:56:15;3.50;62.90
12309;DHT22;6217;48.150;17.142;2023-02-26T21:00:22;3.50;62.70
12309;DHT22;6217;48.150;17.142;2023-02-26T21:04:28;3.50;62.80
12309;DHT22;6217;48.150;17.142;2023-02-26T21:08:34;3.50;63.10
12309;DHT22;6217;48.150;17.142;2023-02-26T21:12:41;3.40;63.60
12309;DHT22;6217;48.150;17.142;2023-02-26T21:16:47;3.40;64.10
12309;DHT22;6217;48.150;17.142;2023-02-26T21:20:52;3.40;63.60
12309;DHT22;6217;48.150;17.142;2023-02-26T21:24:58;3.30;63.80
12309;DHT22;6217;48.150;17.142;2023-02-26T21:29:04;3.30;63.70
12309;DHT22;6217;48.150;17.142;2023-02-26T21:33:10;3.40;63.70
12309;DHT22;6217;48.150;17.142;2023-02-26T21:37:18;3.30;63.70
12309;DHT22;6217;48.150;17.142;2023-02-26T21:41:23;3.20;64.00
12309;DHT22;6217;48.150;17.142;2023-02-26T21:45:30;3.20;64.30
12309;DHT22;6217;48.150;17.142;2023-02-26T21:49:38;3.10;64.50
12309;DHT22;6217;48.150;17.142;2023-02-26T21:53:44;3.10;64.60
12309;DHT22;6217;48.150;17.142;2023-02-26T21:57:51;3.10;64.60
12309;DHT22;6217;48.150;17.142;2023-02-26T22:01:57;3.10;64.70
12309;DHT22;6217;48.150;17.142;2023-02-26T22:06:04;3.10;64.70
12309;DHT22;6217;48.150;17.142;2023-02-26T22:10:10;3.00;64.80
12309;DHT22;6217;48.150;17.142;2023-02-26T22:14:17;3.00;64.90
12309;DHT22;6217;48.150;17.142;2023-02-26T22:18:22;3.00;65.10
12309;DHT22;6217;48.150;17.142;2023-02-26T22:22:28;3.00;65.10
12309;DHT22;6217;48.150;17.142;2023-02-26T22:26:36;3.00;65.00
12309;DHT22;6217;48.150;17.142;2023-02-26T22:30:42;3.00;64.90
12309;DHT22;6217;48.150;17.142;2023-02-26T22:34:50;3.00;64.90
12309;DHT22;6217;48.150;17.142;2023-02-26T22:38:57;3.00;65.00
12309;DHT22;6217;48.150;17.142;2023-02-26T22:43:03;2.90;65.00
12309;DHT22;6217;48.150;17.142;2023-02-26T22:47:09;2.80;65.20
12309;DHT22;6217;48.150;17.142;2023-02-26T22:51:15;2.80;65.30
12309;DHT22;6217;48.150;17.142;2023-02-26T22:55:21;2.90;65.40
12309;DHT22;6217;48.150;17.142;2023-02-26T22:59:27;2.90;65.20
12309;DHT22;6217;48.150;17.142;2023-02-26T23:03:33;2.80;65.30
12309;DHT22;6217;48.150;17.142;2023-02-26T23:07:39;2.80;65.40
12309;DHT22;6217;48.150;17.142;2023-02-26T23:11:45;2.70;65.50
12309;DHT22;6217;48.150;17.142;2023-02-26T23:15:52;2.70;65.70
12309;DHT22;6217;48.150;17.142;2023-02-26T23:19:57;2.60;65.80
12309;DHT22;6217;48.150;17.142;2023-02-26T23:24:04;2.60;65.90
12309;DHT22;6217;48.150;17.142;2023-02-26T23:28:10;2.50;66.00
12309;DHT22;6217;48.150;17.142;2023-02-26T23:32:16;2.50;66.30
12309;DHT22;6217;48.150;17.142;2023-02-26T23:36:22;2.40;66.50
12309;DHT22;6217;48.150;17.142;2023-02-26T23:40:28;2.30;66.80
12309;DHT22;6217;48.150;17.142;2023-02-26T23:44:35;2.30;67.00
12309;DHT22;6217;48.150;17.142;2023-02-26T23:48:41;2.30;66.90
12309;DHT22;6217;48.150;17.142;2023-02-26T23:52:47;2.30;66.80
12309;DHT22;6217;48.150;17.142;2023-02-26T23:56:53;2.30;66.70
